Time;durP1;ratioP1;P1;durP2;ratioP2;P2;SDS_P1;SDS_P2;PMS_P1;PMS_P2;Temp;Humidity;BMP_temperature;BMP_pressure;BME280_temperature;BME280_humidity;BME280_pressure;Samples;Min_cycle;Max_cycle;Signal;HPM_P1;HPM_P2
2022/07/01 00:01:59;;;;;;;12.07;8.90;;;;;;;;;;5055716;28;20182;-73
2022/07/01 00:04:26;;;;;;;12.32;8.93;;;;;;;;;;5037205;28;20155;-72
2022/07/01 00:06:55;;;;;;;18.33;9.43;;;;;;;;;;5054998;28;20532;-72
2022/07/01 00:09:21;;;;;;;13.13;9.40;;;;;;;;;;5055119;28;20547;-71
2022/07/01 00:11:47;;;;;;;14.32;9.75;;;;;;;;;;5055044;28;20029;-72
2022/07/01 00:14:12;;;;;;;14.73;9.30;;;;;;;;;;5055059;28;20036;-73
2022/07/01 00:16:37;;;;;;;14.48;9.25;;;;;;;;;;5054790;28;20037;-73
2022/07/01 00:19:03;;;;;;;12.50;9.60;;;;;;;;;;5055001;28;20078;-73
2022/07/01 00:21:29;;;;;;;13.00;9.32;;;;;;;;;;5054827;28;20341;-72
2022/07/01 00:23:54;;;;;;;15.80;10.02;;;;;;;;;;5054824;28;20104;-73
2022/07/01 00:26:20;;;;;;;12.37;9.07;;;;;;;;;;5054718;28;20021;-73
2022/07/01 00:28:45;;;;;;;14.68;9.23;;;;;;;;;;5054585;28;20315;-73
2022/07/01 00:31:10;;;;;;;12.40;9.48;;;;;;;;;;5054702;28;20029;-73
2022/07/01 00:33:35;;;;;;;14.18;9.82;;;;;;;;;;5055190;28;20376;-72
2022/07/01 00:36:01;;;;;;;14.00;9.17;;;;;;;;;;5054545;28;20041;-73
2022/07/01 00:38:26;;;;;;;14.88;9.45;;;;;;;;;;5036669;28;20799;-73
2022/07/01 00:40:55;;;;;;;12.70;9.57;;;;;;;;;;5054631;28;20486;-73
2022/07/01 00:43:24;;;;;;;14.40;9.80;;;;;;;;;;5054666;28;20285;-73
2022/07/01 00:45:50;;;;;;;13.10;10.02;;;;;;;;;;5054394;28;20099;-72
2022/07/01 00:48:16;;;;;;;15.55;9.68;;;;;;;;;;5054475;28;20090;-72
2022/07/01 00:50:42;;;;;;;11.43;9.18;;;;;;;;;;5054554;28;20029;-73
2022/07/01 00:53:07;;;;;;;15.20;9.80;;;;;;;;;;5054536;28;20151;-72
2022/07/01 00:55:32;;;;;;;17.25;10.13;;;;;;;;;;5054510;28;20052;-72
2022/07/01 00:57:58;;;;;;;13.70;9.47;;;;;;;;;;5053392;28;20539;-73
2022/07/01 01:00:24;;;;;;;12.57;9.23;;;;;;;;;;5036309;28;20329;-73
2022/07/01 01:02:50;;;;;;;14.80;9.38;;;;;;;;;;5036277;28;20029;-73
2022/07/01 01:05:17;;;;;;;13.43;9.07;;;;;;;;;;5054296;28;20098;-73
2022/07/01 01:07:42;;;;;;;12.30;9.10;;;;;;;;;;5036101;28;20021;-74
2022/07/01 01:10:09;;;;;;;13.35;9.23;;;;;;;;;;5036240;28;20051;-73
2022/07/01 01:12:38;;;;;;;15.05;9.93;;;;;;;;;;5036059;28;20125;-73
2022/07/01 01:15:04;;;;;;;14.15;9.88;;;;;;;;;;5053702;28;20492;-73
2022/07/01 01:17:29;;;;;;;12.88;8.98;;;;;;;;;;5053862;28;20032;-73
2022/07/01 01:19:55;;;;;;;15.10;9.75;;;;;;;;;;5053746;28;20116;-72
2022/07/01 01:22:20;;;;;;;17.45;9.57;;;;;;;;;;5053887;28;20056;-71
2022/07/01 01:24:47;;;;;;;14.48;9.32;;;;;;;;;;5053785;28;20029;-71
2022/07/01 01:27:13;;;;;;;12.68;9.32;;;;;;;;;;5053972;28;20059;-72
2022/07/01 01:29:39;;;;;;;15.63;9.45;;;;;;;;;;5036006;28;20044;-73
2022/07/01 01:32:05;;;;;;;13.13;9.70;;;;;;;;;;5054017;28;20055;-73
2022/07/01 01:34:32;;;;;;;13.98;10.05;;;;;;;;;;5053855;28;20064;-73
2022/07/01 01:36:57;;;;;;;16.48;9.52;;;;;;;;;;5053614;28;20047;-72
2022/07/01 01:39:22;;;;;;;11.93;9.38;;;;;;;;;;5054038;28;20474;-73
2022/07/01 01:41:48;;;;;;;13.87;9.67;;;;;;;;;;5053545;28;20041;-73
2022/07/01 01:44:13;;;;;;;11.13;9.23;;;;;;;;;;5053441;28;20268;-72
2022/07/01 01:46:38;;;;;;;14.02;9.23;;;;;;;;;;5053328;28;20253;-73
2022/07/01 01:49:05;;;;;;;16.67;9.90;;;;;;;;;;5053365;28;20088;-72
2022/07/01 01:51:31;;;;;;;14.65;10.07;;;;;;;;;;5053259;28;20021;-72
2022/07/01 01:53:56;;;;;;;17.50;9.40;;;;;;;;;;5053415;28;20495;-71
2022/07/01 01:56:22;;;;;;;15.00;9.80;;;;;;;;;;5053083;28;20033;-73
2022/07/01 01:58:48;;;;;;;14.77;9.57;;;;;;;;;;5053132;28;20029;-72
2022/07/01 02:01:13;;;;;;;13.93;9.40;;;;;;;;;;5054191;28;20070;-72
2022/07/01 02:03:40;;;;;;;12.73;9.32;;;;;;;;;;5053242;28;20367;-73
2022/07/01 02:06:09;;;;;;;11.90;9.00;;;;;;;;;;5052978;28;20090;-73
2022/07/01 02:08:34;;;;;;;14.30;9.52;;;;;;;;;;5035270;28;20035;-72
2022/07/01 02:10:59;;;;;;;12.52;9.20;;;;;;;;;;5053108;28;20020;-73
2022/07/01 02:13:25;;;;;;;13.10;9.30;;;;;;;;;;5053216;28;20024;-72
2022/07/01 02:15:50;;;;;;;15.15;9.20;;;;;;;;;;5052781;28;20292;-74
2022/07/01 02:18:16;;;;;;;17.85;8.85;;;;;;;;;;5053075;28;20028;-72
2022/07/01 02:20:41;;;;;;;12.00;8.85;;;;;;;;;;5053045;28;20028;-72
2022/07/01 02:23:07;;;;;;;13.23;9.52;;;;;;;;;;5053304;28;20087;-72
2022/07/01 02:25:33;;;;;;;14.93;9.32;;;;;;;;;;5035059;28;20020;-73
2022/07/01 02:27:58;;;;;;;11.15;8.77;;;;;;;;;;5052806;28;20025;-72
2022/07/01 02:30:24;;;;;;;13.20;9.63;;;;;;;;;;5035102;28;20033;-73
2022/07/01 02:32:49;;;;;;;13.05;9.13;;;;;;;;;;5035133;28;20028;-73
2022/07/01 02:35:14;;;;;;;16.23;9.37;;;;;;;;;;5052998;28;20112;-72
2022/07/01 02:37:39;;;;;;;10.37;8.60;;;;;;;;;;5052942;28;20343;-73
2022/07/01 02:40:05;;;;;;;12.20;9.27;;;;;;;;;;5052998;28;20270;-73
2022/07/01 02:42:34;;;;;;;13.52;8.40;;;;;;;;;;5052692;28;20285;-73
2022/07/01 02:45:04;;;;;;;13.18;8.90;;;;;;;;;;5034839;28;20498;-72
2022/07/01 02:47:37;;;;;;;13.02;9.63;;;;;;;;;;5053136;28;20025;-73
2022/07/01 02:50:04;;;;;;;10.85;9.15;;;;;;;;;;5052768;28;20612;-74
2022/07/01 02:52:30;;;;;;;15.63;9.73;;;;;;;;;;5052434;28;20114;-71
2022/07/01 02:54:55;;;;;;;11.02;9.00;;;;;;;;;;5052512;28;20055;-72
2022/07/01 02:57:21;;;;;;;12.23;9.02;;;;;;;;;;5052578;28;20021;-73
2022/07/01 02:59:46;;;;;;;13.85;9.80;;;;;;;;;;5052804;28;20441;-73
2022/07/01 03:02:11;;;;;;;13.70;9.23;;;;;;;;;;5052891;28;20028;-72
2022/07/01 03:04:36;;;;;;;12.37;9.70;;;;;;;;;;5034830;28;20095;-73
2022/07/01 03:07:02;;;;;;;14.20;9.20;;;;;;;;;;5052766;28;20265;-72
2022/07/01 03:09:27;;;;;;;15.88;9.70;;;;;;;;;;5053139;28;20269;-72
2022/07/01 03:11:52;;;;;;;15.98;9.45;;;;;;;;;;5052817;28;20025;-72
2022/07/01 03:14:18;;;;;;;11.45;8.77;;;;;;;;;;5052793;28;20036;-72
2022/07/01 03:16:43;;;;;;;16.57;9.73;;;;;;;;;;5052348;28;20685;-72
2022/07/01 03:19:09;;;;;;;14.65;9.25;;;;;;;;;;5052628;28;20610;-71
2022/07/01 03:21:34;;;;;;;13.18;9.52;;;;;;;;;;5055479;28;20025;-74
2022/07/01 03:23:59;;;;;;;14.32;9.50;;;;;;;;;;5056186;28;20033;-73
2022/07/01 03:26:24;;;;;;;15.27;9.63;;;;;;;;;;5056076;28;20043;-72
2022/07/01 03:28:50;;;;;;;14.40;9.07;;;;;;;;;;5055827;28;20337;-72
2022/07/01 03:31:15;;;;;;;16.70;9.63;;;;;;;;;;5056158;28;20343;-73
2022/07/01 03:33:40;;;;;;;12.77;9.68;;;;;;;;;;5038153;28;20250;-72
2022/07/01 03:36:06;;;;;;;13.18;8.93;;;;;;;;;;5055642;28;20056;-72
2022/07/01 03:38:31;;;;;;;15.03;9.40;;;;;;;;;;5055961;28;20083;-72
2022/07/01 03:40:56;;;;;;;14.68;10.02;;;;;;;;;;5055602;28;20254;-72
2022/07/01 03:43:22;;;;;;;15.68;9.70;;;;;;;;;;5055826;28;20039;-72
2022/07/01 03:45:47;;;;;;;17.95;9.85;;;;;;;;;;5055798;28;20024;-73
2022/07/01 03:48:12;;;;;;;11.73;9.02;;;;;;;;;;5055919;28;20072;-73
2022/07/01 03:50:37;;;;;;;11.40;8.53;;;;;;;;;;5055964;28;20039;-72
2022/07/01 03:55:46;;;;;;;13.60;9.35;;;;;;;;;;5055394;28;20028;-72
2022/07/01 03:58:12;;;;;;;12.87;9.13;;;;;;;;;;5055576;28;20032;-71
2022/07/01 04:00:38;;;;;;;12.32;9.00;;;;;;;;;;5037635;28;20257;-72
2022/07/01 04:03:05;;;;;;;15.48;9.27;;;;;;;;;;5055307;28;20029;-73
2022/07/01 04:05:35;;;;;;;14.50;9.20;;;;;;;;;;5055551;28;20615;-71
2022/07/01 04:08:02;;;;;;;15.00;8.77;;;;;;;;;;5055952;28;20103;-72
2022/07/01 04:10:31;;;;;;;14.43;9.00;;;;;;;;;;5037326;28;20030;-73
2022/07/01 04:12:56;;;;;;;12.13;8.48;;;;;;;;;;5055168;28;20017;-71
2022/07/01 04:15:22;;;;;;;13.30;8.02;;;;;;;;;;5055092;28;20029;-72
2022/07/01 04:17:47;;;;;;;12.10;8.05;;;;;;;;;;5055015;28;20555;-74
2022/07/01 04:20:12;;;;;;;11.75;8.30;;;;;;;;;;5054987;28;20051;-71
2022/07/01 04:22:37;;;;;;;12.80;8.43;;;;;;;;;;5055204;28;20029;-73
2022/07/01 04:25:04;;;;;;;16.67;8.77;;;;;;;;;;5055000;28;20029;-72
2022/07/01 04:27:32;;;;;;;18.85;8.45;;;;;;;;;;5055043;28;20349;-71
2022/07/01 04:29:58;;;;;;;17.40;9.98;;;;;;;;;;5054961;28;20036;-71
2022/07/01 04:32:24;;;;;;;14.60;8.93;;;;;;;;;;5053853;28;20013;-72
2022/07/01 04:34:50;;;;;;;13.95;8.93;;;;;;;;;;5054186;28;20661;-73
2022/07/01 04:37:15;;;;;;;14.85;8.63;;;;;;;;;;5053612;28;20112;-74
2022/07/01 04:39:41;;;;;;;18.88;8.93;;;;;;;;;;5054232;28;20505;-73
2022/07/01 04:42:06;;;;;;;14.67;8.40;;;;;;;;;;5054440;28;20505;-72
2022/07/01 04:44:34;;;;;;;11.77;8.35;;;;;;;;;;5054477;28;20756;-72
2022/07/01 04:47:00;;;;;;;11.05;8.05;;;;;;;;;;5054438;28;20024;-73
2022/07/01 04:49:25;;;;;;;15.20;8.00;;;;;;;;;;5054333;28;20036;-72
2022/07/01 04:51:51;;;;;;;14.35;8.70;;;;;;;;;;5054254;28;20025;-71
2022/07/01 04:54:17;;;;;;;16.75;8.32;;;;;;;;;;5054845;28;20025;-73
2022/07/01 04:56:42;;;;;;;14.15;8.27;;;;;;;;;;5054082;28;20028;-73
2022/07/01 04:59:07;;;;;;;16.90;8.05;;;;;;;;;;5036247;28;20033;-72
2022/07/01 05:01:32;;;;;;;10.50;7.93;;;;;;;;;;5054113;28;20023;-72
2022/07/01 05:03:58;;;;;;;10.80;7.97;;;;;;;;;;5054260;28;20029;-72
2022/07/01 05:06:24;;;;;;;13.07;7.85;;;;;;;;;;5053908;28;20308;-72
2022/07/01 05:08:49;;;;;;;11.52;7.82;;;;;;;;;;5054185;28;20025;-73
2022/07/01 05:11:15;;;;;;;16.38;8.00;;;;;;;;;;5054029;28;20445;-73
2022/07/01 05:13:41;;;;;;;13.20;7.38;;;;;;;;;;5054204;28;20359;-73
2022/07/01 05:16:08;;;;;;;14.20;7.70;;;;;;;;;;5053678;28;20039;-73
2022/07/01 05:24:03;;;;;;;9.25;6.55;;;;;;;;;;5054055;28;20053;-72
2022/07/01 05:26:28;;;;;;;11.55;7.32;;;;;;;;;;5053646;28;20052;-72
2022/07/01 05:28:53;;;;;;;10.90;6.97;;;;;;;;;;5053811;28;20516;-72
2022/07/01 05:31:19;;;;;;;9.98;6.40;;;;;;;;;;5053829;28;20119;-71
2022/07/01 05:33:44;;;;;;;7.95;6.18;;;;;;;;;;5053626;28;20028;-73
2022/07/01 05:36:10;;;;;;;12.20;6.85;;;;;;;;;;5035761;28;20040;-73
2022/07/01 05:38:36;;;;;;;10.57;6.47;;;;;;;;;;5053664;28;20062;-74
2022/07/01 05:41:02;;;;;;;10.20;5.80;;;;;;;;;;5053982;28;20112;-74
2022/07/01 05:43:27;;;;;;;11.07;5.82;;;;;;;;;;5053932;28;20468;-73
2022/07/01 05:45:52;;;;;;;10.27;5.97;;;;;;;;;;5053589;28;20025;-72
2022/07/01 05:48:17;;;;;;;8.23;5.38;;;;;;;;;;5053425;28;20349;-72
2022/07/01 05:50:46;;;;;;;22.33;5.70;;;;;;;;;;5053243;28;20032;-71
2022/07/01 05:53:11;;;;;;;10.95;5.90;;;;;;;;;;5035347;28;20259;-73
2022/07/01 05:55:36;;;;;;;13.10;5.90;;;;;;;;;;5053121;28;20083;-72
2022/07/01 05:58:02;;;;;;;10.83;5.60;;;;;;;;;;5053157;28;20266;-73
2022/07/01 06:00:28;;;;;;;13.18;5.95;;;;;;;;;;5052945;28;20254;-72
2022/07/01 06:02:53;;;;;;;11.48;5.63;;;;;;;;;;5053134;28;20116;-72
2022/07/01 06:05:19;;;;;;;8.70;5.78;;;;;;;;;;5053463;28;20099;-72
2022/07/01 06:07:44;;;;;;;10.13;5.75;;;;;;;;;;5053209;28;20056;-72
2022/07/01 06:10:10;;;;;;;8.48;5.93;;;;;;;;;;5053564;28;20032;-73
2022/07/01 06:12:35;;;;;;;9.45;5.80;;;;;;;;;;5052932;28;20024;-73
2022/07/01 06:15:01;;;;;;;7.85;5.75;;;;;;;;;;5052960;28;20114;-72
2022/07/01 06:17:26;;;;;;;10.10;6.03;;;;;;;;;;5052916;28;20028;-72
2022/07/01 06:19:53;;;;;;;11.18;6.60;;;;;;;;;;5052884;28;20254;-73
2022/07/01 06:22:20;;;;;;;11.40;7.20;;;;;;;;;;5052712;28;20037;-72
2022/07/01 06:24:46;;;;;;;12.45;8.07;;;;;;;;;;5034817;28;20082;-72
2022/07/01 06:27:11;;;;;;;14.63;8.15;;;;;;;;;;5052723;28;20037;-73
2022/07/01 06:29:36;;;;;;;12.98;7.93;;;;;;;;;;5052765;28;20029;-73
2022/07/01 06:32:03;;;;;;;15.43;8.23;;;;;;;;;;5052865;28;20052;-73
2022/07/01 06:34:28;;;;;;;12.45;7.60;;;;;;;;;;5052760;28;20272;-72
2022/07/01 06:36:53;;;;;;;17.40;7.43;;;;;;;;;;5053120;28;20017;-72
2022/07/01 06:39:18;;;;;;;11.23;6.83;;;;;;;;;;5053288;28;20285;-72
2022/07/01 06:41:44;;;;;;;13.30;7.05;;;;;;;;;;5052668;28;20258;-73
2022/07/01 06:44:09;;;;;;;14.07;7.47;;;;;;;;;;5052507;28;20060;-73
2022/07/01 06:46:34;;;;;;;10.85;6.80;;;;;;;;;;5052506;28;20029;-73
2022/07/01 06:49:00;;;;;;;12.73;6.60;;;;;;;;;;5052737;28;20439;-73
2022/07/01 06:51:26;;;;;;;10.68;6.93;;;;;;;;;;5035006;28;20387;-72
2022/07/01 06:53:52;;;;;;;10.90;6.53;;;;;;;;;;5034878;28;20162;-72
2022/07/01 06:56:18;;;;;;;11.55;7.40;;;;;;;;;;5055520;28;20057;-74
2022/07/01 06:58:43;;;;;;;14.50;8.05;;;;;;;;;;5056478;28;20504;-72
2022/07/01 07:01:10;;;;;;;11.85;7.07;;;;;;;;;;5056527;28;20044;-72
2022/07/01 07:03:35;;;;;;;13.88;8.07;;;;;;;;;;5056190;28;20083;-72
2022/07/01 07:06:02;;;;;;;8.77;7.25;;;;;;;;;;5056655;28;20021;-72
2022/07/01 07:08:28;;;;;;;11.55;7.07;;;;;;;;;;5056273;28;20029;-73
2022/07/01 07:10:53;;;;;;;14.38;7.07;;;;;;;;;;5056373;28;20029;-72
2022/07/01 07:13:19;;;;;;;13.80;7.60;;;;;;;;;;5056461;28;20043;-73
2022/07/01 07:15:44;;;;;;;12.73;9.25;;;;;;;;;;5056581;28;20266;-73
2022/07/01 07:18:10;;;;;;;11.20;8.43;;;;;;;;;;5056511;28;20056;-73
2022/07/01 07:20:35;;;;;;;13.80;9.95;;;;;;;;;;5056180;28;20025;-73
2022/07/01 07:23:00;;;;;;;16.73;10.50;;;;;;;;;;5056426;28;20059;-73
2022/07/01 07:25:26;;;;;;;14.80;9.57;;;;;;;;;;5055747;28;20254;-72
2022/07/01 07:27:51;;;;;;;14.35;9.32;;;;;;;;;;5055864;28;20281;-71
2022/07/01 07:30:17;;;;;;;13.65;8.68;;;;;;;;;;5037556;28;20060;-73
2022/07/01 07:32:42;;;;;;;14.38;10.40;;;;;;;;;;5056165;28;20029;-73
2022/07/01 07:35:08;;;;;;;13.88;9.50;;;;;;;;;;5055676;28;20021;-73
2022/07/01 07:37:34;;;;;;;18.30;9.73;;;;;;;;;;5055736;28;20482;-73
2022/07/01 07:40:00;;;;;;;12.77;9.23;;;;;;;;;;5055830;28;20114;-74
2022/07/01 07:42:29;;;;;;;12.40;9.30;;;;;;;;;;5055705;28;20284;-73
2022/07/01 07:44:55;;;;;;;12.60;9.18;;;;;;;;;;5055489;28;20031;-73
2022/07/01 07:47:20;;;;;;;15.73;10.30;;;;;;;;;;5056017;28;20115;-72
2022/07/01 07:49:45;;;;;;;17.40;9.63;;;;;;;;;;5055064;28;20025;-73
2022/07/01 07:52:11;;;;;;;14.05;9.00;;;;;;;;;;5055628;28;20107;-73
2022/07/01 07:54:36;;;;;;;17.85;9.05;;;;;;;;;;5038265;28;20024;-75
2022/07/01 07:57:02;;;;;;;13.68;9.23;;;;;;;;;;5055194;28;20382;-73
2022/07/01 07:59:27;;;;;;;18.35;8.93;;;;;;;;;;5055877;28;20028;-72
2022/07/01 08:01:52;;;;;;;14.55;9.00;;;;;;;;;;5055375;28;20044;-73
2022/07/01 08:04:17;;;;;;;15.83;9.23;;;;;;;;;;5055164;28;20033;-73
2022/07/01 08:06:43;;;;;;;14.50;9.27;;;;;;;;;;5054847;28;20270;-73
2022/07/01 08:09:08;;;;;;;15.00;9.90;;;;;;;;;;5055239;28;20270;-73
2022/07/01 08:11:33;;;;;;;16.40;9.52;;;;;;;;;;5055352;28;20220;-73
2022/07/01 08:13:59;;;;;;;15.30;9.63;;;;;;;;;;5055102;28;20448;-73
2022/07/01 08:16:24;;;;;;;18.42;10.50;;;;;;;;;;5055046;28;20277;-73
2022/07/01 08:18:55;;;;;;;20.73;9.90;;;;;;;;;;5055047;28;20035;-73
2022/07/01 08:21:20;;;;;;;14.32;8.90;;;;;;;;;;5054845;28;20074;-74
2022/07/01 08:23:46;;;;;;;16.60;9.43;;;;;;;;;;5054803;28;20402;-72
2022/07/01 08:26:13;;;;;;;14.00;8.80;;;;;;;;;;5054757;28;20608;-72
2022/07/01 08:28:38;;;;;;;14.38;8.88;;;;;;;;;;5036887;28;20380;-72
2022/07/01 08:31:04;;;;;;;16.63;9.23;;;;;;;;;;5055200;28;20047;-71
2022/07/01 08:33:29;;;;;;;15.60;9.57;;;;;;;;;;5054566;28;20261;-72
2022/07/01 08:35:54;;;;;;;16.00;9.27;;;;;;;;;;5054506;28;20337;-73
2022/07/01 08:38:19;;;;;;;14.13;8.73;;;;;;;;;;5054454;28;20254;-73
2022/07/01 08:40:45;;;;;;;13.52;8.23;;;;;;;;;;5055025;28;20017;-72
2022/07/01 08:43:10;;;;;;;14.57;8.27;;;;;;;;;;5054493;28;20025;-73
2022/07/01 08:45:37;;;;;;;11.02;7.95;;;;;;;;;;5054583;28;20024;-72
2022/07/01 08:48:02;;;;;;;13.50;9.32;;;;;;;;;;5054430;28;20048;-74
2022/07/01 08:50:34;;;;;;;13.80;8.95;;;;;;;;;;5036345;28;20032;-72
2022/07/01 08:53:00;;;;;;;15.55;9.00;;;;;;;;;;5054614;28;20089;-74
2022/07/01 08:55:25;;;;;;;17.70;9.03;;;;;;;;;;5054279;28;20060;-73
2022/07/01 08:57:51;;;;;;;13.48;9.52;;;;;;;;;;5054110;28;20275;-74
2022/07/01 09:00:17;;;;;;;12.18;8.85;;;;;;;;;;5054607;28;20029;-72
2022/07/01 09:02:57;;;;;;;12.18;9.43;;;;;;;;;;5054091;28;20037;-73
2022/07/01 09:05:24;;;;;;;13.57;8.73;;;;;;;;;;5054263;28;20028;-73
2022/07/01 09:07:56;;;;;;;11.23;8.57;;;;;;;;;;5054610;28;20486;-73
2022/07/01 09:10:22;;;;;;;14.88;8.18;;;;;;;;;;5054363;28;20039;-73
2022/07/01 09:12:48;;;;;;;14.63;8.52;;;;;;;;;;5054927;28;20032;-73
2022/07/01 09:15:26;;;;;;;14.15;7.40;;;;;;;;;;5054303;28;20037;-73
2022/07/01 09:17:56;;;;;;;11.43;7.78;;;;;;;;;;5053668;28;20025;-73
2022/07/01 09:20:42;;;;;;;13.38;8.50;;;;;;;;;;5054443;28;20021;-73
2022/07/01 09:23:11;;;;;;;13.05;8.88;;;;;;;;;;5054337;28;20033;-72
2022/07/01 09:25:45;;;;;;;16.38;9.40;;;;;;;;;;5053791;28;20410;-72
2022/07/01 09:28:17;;;;;;;15.48;9.07;;;;;;;;;;5054305;28;20113;-74
2022/07/01 09:30:46;;;;;;;14.75;9.05;;;;;;;;;;5055569;28;20028;-72
2022/07/01 09:33:15;;;;;;;14.95;8.25;;;;;;;;;;5056969;28;20027;-73
2022/07/01 09:35:42;;;;;;;14.68;8.07;;;;;;;;;;5037578;28;20075;-73
2022/07/01 09:38:10;;;;;;;15.30;9.05;;;;;;;;;;5070396;28;20108;-78
2022/07/01 09:40:50;;;;;;;15.15;7.78;;;;;;;;;;5048467;28;20058;-80
2022/07/01 09:43:20;;;;;;;13.48;7.85;;;;;;;;;;5070072;28;20033;-78
2022/07/01 09:45:49;;;;;;;13.52;8.50;;;;;;;;;;5076025;28;20033;-78
2022/07/01 09:48:14;;;;;;;15.32;8.05;;;;;;;;;;5064660;28;20494;-79
2022/07/01 09:50:40;;;;;;;17.47;9.30;;;;;;;;;;5055717;28;20116;-79
2022/07/01 09:53:05;;;;;;;14.20;8.82;;;;;;;;;;5038381;28;20341;-79
2022/07/01 09:55:33;;;;;;;15.77;8.35;;;;;;;;;;5057260;28;20029;-77
2022/07/01 09:57:58;;;;;;;16.55;8.05;;;;;;;;;;5057933;28;20033;-78
2022/07/01 10:00:25;;;;;;;17.40;8.73;;;;;;;;;;5039793;28;20386;-77
2022/07/01 10:02:51;;;;;;;13.75;8.20;;;;;;;;;;5056565;28;20274;-77
2022/07/01 10:12:50;;;;;;;11.30;7.10;;;;;;;;;;4997670;28;20065;-79
2022/07/01 10:30:17;;;;;;;11.25;6.63;;;;;;;;;;5061624;28;20425;-80
2022/07/01 10:36:58;;;;;;;9.90;5.97;;;;;;;;;;5293027;22;20056;-78
2022/07/01 10:53:06;;;;;;;9.60;5.40;;;;;;;;;;4999600;28;20064;-79
2022/07/01 10:56:10;;;;;;;7.22;5.05;;;;;;;;;;5026633;28;20036;-78
2022/07/01 11:43:38;;;;;;;7.63;4.32;;;;;;;;;;4925834;28;20128;-79
2022/07/01 12:03:02;;;;;;;;;;;;;;;;;;;;;
2022/07/01 12:05:45;;;;;;;9.63;4.20;;;;;;;;;;5058161;22;20143;-79
2022/07/01 12:08:53;;;;;;;5.60;4.55;;;;;;;;;;5084593;28;20379;-80
2022/07/01 12:11:35;;;;;;;5.20;4.55;;;;;;;;;;5080043;28;20028;-79
2022/07/01 12:14:03;;;;;;;37.85;5.80;;;;;;;;;;5082714;28;20103;-80
2022/07/01 12:16:40;;;;;;;22.92;5.28;;;;;;;;;;5082877;28;20047;-78
2022/07/01 12:19:06;;;;;;;5.80;5.13;;;;;;;;;;5065783;28;20020;-78
2022/07/01 12:21:54;;;;;;;7.30;5.97;;;;;;;;;;5082788;28;20092;-79
2022/07/01 12:24:26;;;;;;;4.78;4.38;;;;;;;;;;5083561;28;20035;-79
2022/07/01 12:26:57;;;;;;;7.78;4.78;;;;;;;;;;5083227;28;20027;-78
2022/07/01 12:29:24;;;;;;;4.57;4.18;;;;;;;;;;5065251;28;20032;-80
2022/07/01 12:31:58;;;;;;;5.03;4.55;;;;;;;;;;5066076;28;20030;-79
2022/07/01 12:34:37;;;;;;;6.32;4.55;;;;;;;;;;5065936;28;20082;-80
2022/07/01 12:37:13;;;;;;;7.43;4.25;;;;;;;;;;5083916;28;20025;-78
2022/07/01 12:39:50;;;;;;;5.47;4.38;;;;;;;;;;5066699;28;20025;-78
2022/07/01 12:42:42;;;;;;;5.35;4.85;;;;;;;;;;5085125;28;20039;-79
2022/07/01 12:45:11;;;;;;;4.63;4.22;;;;;;;;;;5072777;28;20513;-78
2022/07/01 12:47:47;;;;;;;4.45;4.03;;;;;;;;;;5065466;28;20025;-79
2022/07/01 12:50:25;;;;;;;6.70;4.20;;;;;;;;;;5083941;28;20024;-79
2022/07/01 12:52:58;;;;;;;7.50;4.65;;;;;;;;;;5081270;28;20056;-78
2022/07/01 12:55:30;;;;;;;3.30;3.00;;;;;;;;;;5082226;28;20073;-78
2022/07/01 12:57:59;;;;;;;2.65;2.45;;;;;;;;;;5080301;28;20029;-78
2022/07/01 13:00:26;;;;;;;4.13;1.90;;;;;;;;;;5082849;28;20020;-79
2022/07/01 13:02:52;;;;;;;1.70;1.60;;;;;;;;;;5082416;28;20016;-79
2022/07/01 13:05:18;;;;;;;2.72;1.80;;;;;;;;;;5061280;28;20024;-79
2022/07/01 13:07:44;;;;;;;4.75;1.70;;;;;;;;;;5082086;28;20036;-84
2022/07/01 13:10:09;;;;;;;3.85;1.83;;;;;;;;;;5082469;28;20032;-82
2022/07/01 13:12:37;;;;;;;1.75;1.63;;;;;;;;;;5081047;28;20021;-81
2022/07/01 13:15:03;;;;;;;2.17;1.77;;;;;;;;;;5084833;28;20028;-80
2022/07/01 13:17:28;;;;;;;2.13;1.83;;;;;;;;;;5085966;28;20063;-80
2022/07/01 13:19:54;;;;;;;1.53;1.43;;;;;;;;;;5066644;28;20028;-79
2022/07/01 13:22:19;;;;;;;1.83;1.30;;;;;;;;;;5082301;28;20283;-81
2022/07/01 13:24:45;;;;;;;1.98;1.23;;;;;;;;;;5066387;28;20020;-78
2022/07/01 13:27:53;;;;;;;;;;;;;;;;;;;;;
2022/07/01 13:31:04;;;;;;;;;;;;;;;;;;;;;
2022/07/01 13:37:35;;;;;;;2.00;1.50;;;;;;;;;;4964219;28;20027;-79
2022/07/01 13:47:13;;;;;;;2.60;2.40;;;;;;;;;;4906301;29;20111;-80
2022/07/01 13:49:49;;;;;;;2.72;2.53;;;;;;;;;;4924337;29;20036;-80
2022/07/01 13:53:07;;;;;;;5.47;2.70;;;;;;;;;;4988216;28;20038;-78
2022/07/01 13:55:57;;;;;;;3.22;2.85;;;;;;;;;;4930608;28;20050;-78
2022/07/01 13:58:28;;;;;;;3.90;3.50;;;;;;;;;;5020990;28;20478;-80
2022/07/01 14:01:34;;;;;;;;;;;;;;;;;;;;;
2022/07/01 14:04:48;;;;;;;6.68;3.83;;;;;;;;;;5037859;28;20119;-79
2022/07/01 14:07:32;;;;;;;4.40;4.00;;;;;;;;;;5061357;28;20021;-80
2022/07/01 14:11:08;;;;;;;10.07;4.57;;;;;;;;;;5061963;28;20036;-80
2022/07/01 14:14:47;;;;;;;;;;;;;;;;;;;;;
2022/07/01 14:24:22;;;;;;;4.90;4.07;;;;;;;;;;4962778;29;20046;-79
2022/07/01 14:27:19;;;;;;;5.40;3.67;;;;;;;;;;4961999;28;20039;-79
2022/07/01 14:30:32;;;;;;;5.95;4.15;;;;;;;;;;4961284;29;20432;-81
2022/07/01 14:33:40;;;;;;;4.40;4.00;;;;;;;;;;4941471;29;20074;-79
2022/07/01 14:36:48;;;;;;;4.75;3.70;;;;;;;;;;4904008;29;20115;-79
2022/07/01 14:44:00;;;;;;;3.72;3.17;;;;;;;;;;4845969;29;20041;-80
2022/07/01 15:00:38;;;;;;;2.60;1.80;;;;;;;;;;5015342;28;20495;-77
2022/07/01 15:03:04;;;;;;;2.00;1.30;;;;;;;;;;5039922;28;20040;-78
2022/07/01 15:05:30;;;;;;;1.50;1.23;;;;;;;;;;5027281;28;20025;-79
2022/07/01 15:07:55;;;;;;;6.55;1.25;;;;;;;;;;5045899;28;20125;-79
2022/07/01 15:10:20;;;;;;;1.45;1.13;;;;;;;;;;5042127;28;20025;-77
2022/07/01 15:12:46;;;;;;;1.30;1.00;;;;;;;;;;5039855;28;20378;-79
2022/07/01 15:15:11;;;;;;;1.08;0.85;;;;;;;;;;5044695;28;20021;-78
2022/07/01 15:17:44;;;;;;;0.80;0.80;;;;;;;;;;5046801;28;20032;-80
2022/07/01 15:20:11;;;;;;;1.13;0.90;;;;;;;;;;5042597;28;20025;-77
2022/07/01 15:22:36;;;;;;;1.08;0.88;;;;;;;;;;5041946;28;20109;-77
2022/07/01 15:25:02;;;;;;;1.83;0.95;;;;;;;;;;5026703;28;20434;-77
2022/07/01 15:27:27;;;;;;;3.13;0.98;;;;;;;;;;5044620;28;20479;-77
2022/07/01 15:29:52;;;;;;;1.23;0.73;;;;;;;;;;5043069;28;20111;-78
2022/07/01 15:32:20;;;;;;;2.77;0.90;;;;;;;;;;5042683;28;20282;-77
2022/07/01 15:34:46;;;;;;;4.40;0.80;;;;;;;;;;5043286;28;20736;-76
2022/07/01 15:37:11;;;;;;;2.72;0.90;;;;;;;;;;5023468;28;20029;-78
2022/07/01 15:39:36;;;;;;;1.37;0.70;;;;;;;;;;5041231;28;20126;-77
2022/07/01 15:42:02;;;;;;;3.20;0.88;;;;;;;;;;5042191;28;20304;-77
2022/07/01 15:44:28;;;;;;;1.20;0.80;;;;;;;;;;5041479;28;20449;-77
2022/07/01 15:46:53;;;;;;;0.75;0.75;;;;;;;;;;5041593;28;20033;-77
2022/07/01 15:49:19;;;;;;;1.40;0.83;;;;;;;;;;5040666;28;20032;-78
2022/07/01 15:51:44;;;;;;;1.30;1.00;;;;;;;;;;5043824;28;20628;-76
2022/07/01 15:54:10;;;;;;;2.37;0.90;;;;;;;;;;5041233;28;20635;-77
2022/07/01 15:56:35;;;;;;;1.55;0.95;;;;;;;;;;5040246;28;20270;-77
2022/07/01 15:59:01;;;;;;;1.42;1.00;;;;;;;;;;5039638;28;20390;-77
2022/07/01 16:01:26;;;;;;;2.43;1.07;;;;;;;;;;5039652;28;20022;-76
2022/07/01 16:03:53;;;;;;;5.07;0.97;;;;;;;;;;5021532;28;20313;-76
2022/07/01 16:06:20;;;;;;;1.58;1.08;;;;;;;;;;5040115;28;20266;-78
2022/07/01 16:08:48;;;;;;;1.50;1.10;;;;;;;;;;5022171;28;20056;-77
2022/07/01 16:11:15;;;;;;;2.60;1.40;;;;;;;;;;5022862;28;20026;-77
2022/07/01 16:13:46;;;;;;;1.58;1.30;;;;;;;;;;5040431;28;20014;-78
2022/07/01 16:16:25;;;;;;;2.17;1.33;;;;;;;;;;5039278;28;20034;-76
2022/07/01 16:18:52;;;;;;;4.15;1.70;;;;;;;;;;5039843;28;20025;-75
2022/07/01 16:21:19;;;;;;;2.22;1.70;;;;;;;;;;5040300;28;20091;-77
2022/07/01 16:23:51;;;;;;;2.97;1.77;;;;;;;;;;5022669;28;20088;-78
2022/07/01 16:26:19;;;;;;;3.35;1.80;;;;;;;;;;5041138;28;20029;-77
2022/07/01 16:28:46;;;;;;;2.28;1.88;;;;;;;;;;5039873;28;20025;-77
2022/07/01 16:31:14;;;;;;;2.03;1.70;;;;;;;;;;5039377;28;20026;-76
2022/07/01 16:33:40;;;;;;;2.20;2.00;;;;;;;;;;5039914;28;20447;-77
2022/07/01 16:36:36;;;;;;;2.50;2.03;;;;;;;;;;5039258;28;20071;-76
2022/07/01 16:39:16;;;;;;;2.65;2.15;;;;;;;;;;5036159;28;20060;-76
2022/07/01 16:41:49;;;;;;;2.50;2.30;;;;;;;;;;5040228;28;20049;-77
2022/07/01 16:44:23;;;;;;;;;;;;;;;;;;5040487;28;20033;-77
2022/07/01 16:46:51;;;;;;;4.43;2.60;;;;;;;;;;5039284;28;20050;-76
2022/07/01 16:49:24;;;;;;;3.38;2.38;;;;;;;;;;5039463;28;20082;-77
2022/07/01 16:51:53;;;;;;;3.78;2.50;;;;;;;;;;5039448;28;20141;-76
2022/07/01 16:54:19;;;;;;;3.95;2.60;;;;;;;;;;5039403;28;20026;-77
2022/07/01 16:56:49;;;;;;;5.47;2.45;;;;;;;;;;5022925;28;20105;-77
2022/07/01 16:59:16;;;;;;;4.50;2.55;;;;;;;;;;5040797;28;20052;-77
2022/07/01 17:01:43;;;;;;;3.53;2.75;;;;;;;;;;5040373;28;20063;-77
2022/07/01 17:04:10;;;;;;;3.92;2.90;;;;;;;;;;5039564;28;20025;-78
2022/07/01 17:06:38;;;;;;;3.70;2.50;;;;;;;;;;5022754;28;20108;-77
2022/07/01 17:09:07;;;;;;;3.78;2.70;;;;;;;;;;5039816;28;20025;-76
2022/07/01 17:11:32;;;;;;;3.83;2.88;;;;;;;;;;5039683;28;20048;-75
2022/07/01 17:13:58;;;;;;;3.83;2.92;;;;;;;;;;5039655;28;20029;-75
2022/07/01 17:16:23;;;;;;;5.45;2.85;;;;;;;;;;5039735;28;20040;-78